sensor_id;sensor_type;location;lat;lon;timestamp;pressure;altitude;pressure_sealevel;temperature;humidity
86085;BME280;76694;53.530;50.016;2024-03-22T00:05:00;101958.63;;;-8.10;84.31
86085;BME280;76694;53.530;50.016;2024-03-22T00:10:04;101926.63;;;-8.18;84.94
86085;BME280;76694;53.530;50.016;2024-03-22T00:15:07;101938.22;;;-8.18;84.88
86085;BME280;76694;53.530;50.016;2024-03-22T00:20:10;101936.16;;;-8.11;84.73
86085;BME280;76694;53.530;50.016;2024-03-22T00:25:13;101931.50;;;-8.15;84.61
86085;BME280;76694;53.530;50.016;2024-03-22T00:30:16;101927.03;;;-8.32;84.46
86085;BME280;76694;53.530;50.016;2024-03-22T00:35:19;101943.63;;;-8.23;84.89
86085;BME280;76694;53.530;50.016;2024-03-22T00:40:21;101914.75;;;-8.39;83.94
86085;BME280;76694;53.530;50.016;2024-03-22T00:45:24;101931.00;;;-8.39;83.93
86085;BME280;76694;53.530;50.016;2024-03-22T00:50:27;101924.91;;;-8.51;84.26
86085;BME280;76694;53.530;50.016;2024-03-22T00:55:30;101937.13;;;-8.49;84.54
86085;BME280;76694;53.530;50.016;2024-03-22T01:00:32;101942.53;;;-8.49;84.46
86085;BME280;76694;53.530;50.016;2024-03-22T01:05:35;101931.34;;;-8.57;84.05
86085;BME280;76694;53.530;50.016;2024-03-22T01:10:38;101921.25;;;-8.62;82.64
86085;BME280;76694;53.530;50.016;2024-03-22T01:15:41;101919.53;;;-8.73;82.81
86085;BME280;76694;53.530;50.016;2024-03-22T01:20:43;101896.31;;;-8.90;83.54
86085;BME280;76694;53.530;50.016;2024-03-22T01:25:46;101886.38;;;-9.07;83.41
86085;BME280;76694;53.530;50.016;2024-03-22T01:30:49;101924.47;;;-8.86;83.96
86085;BME280;76694;53.530;50.016;2024-03-22T01:35:51;101916.94;;;-9.06;84.21
86085;BME280;76694;53.530;50.016;2024-03-22T01:40:54;101926.19;;;-9.02;83.18
86085;BME280;76694;53.530;50.016;2024-03-22T01:45:56;101891.81;;;-9.23;82.62
86085;BME280;76694;53.530;50.016;2024-03-22T01:51:00;101880.94;;;-9.28;82.04
86085;BME280;76694;53.530;50.016;2024-03-22T01:56:03;101912.13;;;-9.21;82.73
86085;BME280;76694;53.530;50.016;2024-03-22T02:01:06;101887.75;;;-9.42;83.63
86085;BME280;76694;53.530;50.016;2024-03-22T02:06:09;101886.78;;;-9.36;83.47
86085;BME280;76694;53.530;50.016;2024-03-22T02:11:12;101899.78;;;-9.33;84.00
86085;BME280;76694;53.530;50.016;2024-03-22T02:16:16;101891.91;;;-9.35;82.89
86085;BME280;76694;53.530;50.016;2024-03-22T02:21:19;101892.91;;;-9.41;82.55
86085;BME280;76694;53.530;50.016;2024-03-22T02:26:21;101667.31;;;-10.85;83.03
86085;BME280;76694;53.530;50.016;2024-03-22T02:31:24;101885.34;;;-9.60;83.68
86085;BME280;76694;53.530;50.016;2024-03-22T02:36:28;101865.78;;;-9.67;83.63
86085;BME280;76694;53.530;50.016;2024-03-22T02:41:30;101871.53;;;-9.64;83.13
86085;BME280;76694;53.530;50.016;2024-03-22T02:46:33;101830.06;;;-9.91;83.17
86085;BME280;76694;53.530;50.016;2024-03-22T02:51:36;101851.22;;;-9.66;82.10
86085;BME280;76694;53.530;50.016;2024-03-22T02:56:38;101855.91;;;-9.62;82.12
86085;BME280;76694;53.530;50.016;2024-03-22T03:01:41;101837.94;;;-9.68;82.65
86085;BME280;76694;53.530;50.016;2024-03-22T03:06:44;101818.56;;;-9.65;83.06
86085;BME280;76694;53.530;50.016;2024-03-22T03:11:50;101866.81;;;-9.14;83.49
86085;BME280;76694;53.530;50.016;2024-03-22T03:16:52;101875.94;;;-8.98;82.66
86085;BME280;76694;53.530;50.016;2024-03-22T03:21:55;101853.81;;;-8.95;83.61
86085;BME280;76694;53.530;50.016;2024-03-22T03:26:58;101855.78;;;-8.64;82.79
86085;BME280;76694;53.530;50.016;2024-03-22T03:32:00;101861.78;;;-8.35;81.99
86085;BME280;76694;53.530;50.016;2024-03-22T03:37:03;101842.16;;;-8.15;82.96
86085;BME280;76694;53.530;50.016;2024-03-22T03:42:06;101851.69;;;-7.76;83.37
86085;BME280;76694;53.530;50.016;2024-03-22T03:47:09;101861.94;;;-7.42;83.28
86085;BME280;76694;53.530;50.016;2024-03-22T03:52:12;101836.06;;;-7.17;82.88
86085;BME280;76694;53.530;50.016;2024-03-22T03:57:14;101848.69;;;-6.86;82.54
86085;BME280;76694;53.530;50.016;2024-03-22T04:02:17;101853.97;;;-6.44;82.07
86085;BME280;76694;53.530;50.016;2024-03-22T04:07:20;101856.44;;;-6.28;78.69
86085;BME280;76694;53.530;50.016;2024-03-22T04:12:23;101836.34;;;-6.27;77.58
86085;BME280;76694;53.530;50.016;2024-03-22T04:17:26;101849.38;;;-5.94;74.12
86085;BME280;76694;53.530;50.016;2024-03-22T04:22:29;101859.66;;;-5.50;74.94
86085;BME280;76694;53.530;50.016;2024-03-22T04:27:32;101822.13;;;-5.48;74.01
86085;BME280;76694;53.530;50.016;2024-03-22T04:32:34;101845.34;;;-4.82;75.14
86085;BME280;76694;53.530;50.016;2024-03-22T04:37:37;101820.31;;;-4.89;72.36
86085;BME280;76694;53.530;50.016;2024-03-22T04:42:40;101816.34;;;-4.58;73.75
86085;BME280;76694;53.530;50.016;2024-03-22T04:47:42;101786.19;;;-4.71;72.48
86085;BME280;76694;53.530;50.016;2024-03-22T04:52:46;101817.19;;;-3.90;75.41
86085;BME280;76694;53.530;50.016;2024-03-22T04:57:52;101848.28;;;-3.29;73.82
86085;BME280;76694;53.530;50.016;2024-03-22T05:02:54;101841.16;;;-3.30;71.79
86085;BME280;76694;53.530;50.016;2024-03-22T05:07:57;101821.97;;;-2.96;71.40
86085;BME280;76694;53.530;50.016;2024-03-22T05:13:00;101806.66;;;-2.97;71.55
86085;BME280;76694;53.530;50.016;2024-03-22T05:18:02;101832.22;;;-2.46;71.63
86085;BME280;76694;53.530;50.016;2024-03-22T05:23:08;101835.75;;;-2.26;71.39
86085;BME280;76694;53.530;50.016;2024-03-22T05:28:12;101840.13;;;-2.25;71.26
86085;BME280;76694;53.530;50.016;2024-03-22T05:33:15;101840.31;;;-2.03;71.44
86085;BME280;76694;53.530;50.016;2024-03-22T05:38:19;101832.72;;;-1.74;71.31
86085;BME280;76694;53.530;50.016;2024-03-22T05:43:22;101730.03;;;-2.12;70.53
86085;BME280;76694;53.530;50.016;2024-03-22T05:48:24;101806.59;;;-1.21;70.74
86085;BME280;76694;53.530;50.016;2024-03-22T05:53:28;101808.38;;;-1.16;70.74
86085;BME280;76694;53.530;50.016;2024-03-22T05:58:31;101806.88;;;-0.82;70.47
86085;BME280;76694;53.530;50.016;2024-03-22T06:03:33;101811.78;;;-0.21;68.84
86085;BME280;76694;53.530;50.016;2024-03-22T06:08:36;101799.47;;;0.35;68.20
86085;BME280;76694;53.530;50.016;2024-03-22T06:13:41;101775.66;;;0.52;66.80
86085;BME280;76694;53.530;50.016;2024-03-22T06:18:44;101770.03;;;0.57;66.71
86085;BME280;76694;53.530;50.016;2024-03-22T06:23:51;101785.44;;;0.75;67.44
86085;BME280;76694;53.530;50.016;2024-03-22T06:28:57;101786.22;;;0.67;68.43
86085;BME280;76694;53.530;50.016;2024-03-22T06:34:00;101766.25;;;0.84;67.94
86085;BME280;76694;53.530;50.016;2024-03-22T06:39:04;101774.75;;;1.13;67.27
86085;BME280;76694;53.530;50.016;2024-03-22T06:44:12;101783.53;;;1.32;67.20
86085;BME280;76694;53.530;50.016;2024-03-22T06:49:16;101769.63;;;1.46;66.95
86085;BME280;76694;53.530;50.016;2024-03-22T06:54:19;101752.81;;;1.73;65.91
86085;BME280;76694;53.530;50.016;2024-03-22T06:59:22;101720.94;;;1.63;66.40
86085;BME280;76694;53.530;50.016;2024-03-22T07:04:25;101755.66;;;2.19;65.54
86085;BME280;76694;53.530;50.016;2024-03-22T07:09:28;101769.31;;;2.54;64.76
86085;BME280;76694;53.530;50.016;2024-03-22T07:14:32;101761.31;;;2.78;62.06
86085;BME280;76694;53.530;50.016;2024-03-22T07:19:35;101751.63;;;3.01;63.52
86085;BME280;76694;53.530;50.016;2024-03-22T07:24:37;101731.28;;;3.35;61.43
86085;BME280;76694;53.530;50.016;2024-03-22T07:29:41;101723.34;;;3.33;62.24
86085;BME280;76694;53.530;50.016;2024-03-22T07:34:46;101732.50;;;3.66;60.44
86085;BME280;76694;53.530;50.016;2024-03-22T07:39:49;101741.72;;;4.24;59.15
86085;BME280;76694;53.530;50.016;2024-03-22T07:44:51;101693.47;;;4.33;55.42
86085;BME280;76694;53.530;50.016;2024-03-22T07:49:54;101701.94;;;4.73;51.87
86085;BME280;76694;53.530;50.016;2024-03-22T07:55:00;101721.50;;;5.04;55.60
86085;BME280;76694;53.530;50.016;2024-03-22T08:00:05;101719.25;;;5.46;54.54
86085;BME280;76694;53.530;50.016;2024-03-22T08:05:09;101715.84;;;6.20;46.84
86085;BME280;76694;53.530;50.016;2024-03-22T08:10:12;101696.75;;;6.46;47.45
86085;BME280;76694;53.530;50.016;2024-03-22T08:15:20;101683.34;;;6.98;44.92
86085;BME280;76694;53.530;50.016;2024-03-22T08:20:26;101668.59;;;7.67;43.62
86085;BME280;76694;53.530;50.016;2024-03-22T08:25:29;101680.09;;;7.66;47.14
86085;BME280;76694;53.530;50.016;2024-03-22T08:35:56;101651.28;;;8.61;47.72
86085;BME280;76694;53.530;50.016;2024-03-22T08:40:59;101655.63;;;8.36;53.40
86085;BME280;76694;53.530;50.016;2024-03-22T08:46:05;101662.47;;;8.87;42.75
86085;BME280;76694;53.530;50.016;2024-03-22T08:51:11;101627.28;;;9.64;44.27
86085;BME280;76694;53.530;50.016;2024-03-22T08:56:14;101636.19;;;10.14;41.09
86085;BME280;76694;53.530;50.016;2024-03-22T09:01:17;101643.88;;;10.68;48.64
86085;BME280;76694;53.530;50.016;2024-03-22T09:06:20;101616.25;;;10.56;37.04
86085;BME280;76694;53.530;50.016;2024-03-22T09:11:26;101635.63;;;10.85;35.92
86085;BME280;76694;53.530;50.016;2024-03-22T09:16:29;101635.56;;;10.27;38.60
86085;BME280;76694;53.530;50.016;2024-03-22T09:21:33;101629.56;;;10.25;50.31
86085;BME280;76694;53.530;50.016;2024-03-22T09:26:36;101626.94;;;10.06;52.25
86085;BME280;76694;53.530;50.016;2024-03-22T09:31:38;101614.13;;;9.61;51.11
86085;BME280;76694;53.530;50.016;2024-03-22T09:36:41;101617.53;;;8.88;45.78
86085;BME280;76694;53.530;50.016;2024-03-22T09:41:44;101619.91;;;8.86;52.66
86085;BME280;76694;53.530;50.016;2024-03-22T09:46:47;101615.41;;;8.30;44.41
86085;BME280;76694;53.530;50.016;2024-03-22T09:51:52;101603.03;;;8.50;52.29
86085;BME280;76694;53.530;50.016;2024-03-22T09:56:56;101575.41;;;8.38;50.81
86085;BME280;76694;53.530;50.016;2024-03-22T10:02:04;101598.78;;;8.33;46.96
86085;BME280;76694;53.530;50.016;2024-03-22T10:07:10;101593.19;;;8.10;50.75
86085;BME280;76694;53.530;50.016;2024-03-22T10:12:13;101562.41;;;7.55;51.69
86085;BME280;76694;53.530;50.016;2024-03-22T10:17:16;101590.72;;;7.22;43.96
86085;BME280;76694;53.530;50.016;2024-03-22T10:22:19;101586.97;;;7.33;49.67
86085;BME280;76694;53.530;50.016;2024-03-22T10:27:21;101577.56;;;7.19;37.31
86085;BME280;76694;53.530;50.016;2024-03-22T10:32:24;101578.09;;;7.24;38.51
86085;BME280;76694;53.530;50.016;2024-03-22T10:37:30;101568.31;;;7.30;45.84
86085;BME280;76694;53.530;50.016;2024-03-22T10:42:41;101490.31;;;6.78;51.34
86085;BME280;76694;53.530;50.016;2024-03-22T10:47:44;101531.63;;;7.02;48.04
86085;BME280;76694;53.530;50.016;2024-03-22T10:57:55;101551.41;;;7.01;38.58
86085;BME280;76694;53.530;50.016;2024-03-22T11:02:59;101501.53;;;7.04;36.91
86085;BME280;76694;53.530;50.016;2024-03-22T11:08:05;101530.03;;;7.62;48.89
86085;BME280;76694;53.530;50.016;2024-03-22T11:13:08;101490.00;;;7.21;43.94
86085;BME280;76694;53.530;50.016;2024-03-22T11:18:11;101516.44;;;7.57;51.39
86085;BME280;76694;53.530;50.016;2024-03-22T11:23:14;101524.81;;;7.38;45.99
86085;BME280;76694;53.530;50.016;2024-03-22T11:28:17;101431.91;;;6.71;51.40
86085;BME280;76694;53.530;50.016;2024-03-22T11:33:24;101500.75;;;7.04;41.07
86085;BME280;76694;53.530;50.016;2024-03-22T11:38:31;101525.84;;;7.11;36.56
86085;BME280;76694;53.530;50.016;2024-03-22T11:43:34;101500.75;;;6.85;39.85
86085;BME280;76694;53.530;50.016;2024-03-22T11:48:42;101516.31;;;6.89;37.95
86085;BME280;76694;53.530;50.016;2024-03-22T11:53:52;101502.88;;;6.72;39.28
86085;BME280;76694;53.530;50.016;2024-03-22T11:58:58;101487.88;;;6.58;38.05
86085;BME280;76694;53.530;50.016;2024-03-22T12:04:22;101494.91;;;6.71;41.58
86085;BME280;76694;53.530;50.016;2024-03-22T12:09:25;101472.28;;;6.49;41.66
86085;BME280;76694;53.530;50.016;2024-03-22T12:14:28;101479.50;;;6.54;48.81
86085;BME280;76694;53.530;50.016;2024-03-22T12:19:34;101484.59;;;6.52;41.29
86085;BME280;76694;53.530;50.016;2024-03-22T12:24:37;101465.31;;;6.40;44.86
86085;BME280;76694;53.530;50.016;2024-03-22T12:29:40;101472.63;;;6.48;48.02
86085;BME280;76694;53.530;50.016;2024-03-22T12:34:43;101467.19;;;6.36;41.92
86085;BME280;76694;53.530;50.016;2024-03-22T12:39:45;101411.75;;;6.17;53.28
86085;BME280;76694;53.530;50.016;2024-03-22T12:44:49;101452.31;;;6.25;52.80
86085;BME280;76694;53.530;50.016;2024-03-22T12:49:52;101457.97;;;6.13;51.29
86085;BME280;76694;53.530;50.016;2024-03-22T12:54:55;101456.16;;;5.86;52.38
86085;BME280;76694;53.530;50.016;2024-03-22T12:59:57;101446.66;;;5.55;39.11
86085;BME280;76694;53.530;50.016;2024-03-22T13:05:03;101429.78;;;5.29;46.21
86085;BME280;76694;53.530;50.016;2024-03-22T13:10:09;101427.56;;;5.50;53.42
86085;BME280;76694;53.530;50.016;2024-03-22T13:15:13;101433.69;;;5.28;43.13
86085;BME280;76694;53.530;50.016;2024-03-22T13:20:16;101430.19;;;5.16;47.63
86085;BME280;76694;53.530;50.016;2024-03-22T13:25:20;101423.63;;;4.77;46.91
86085;BME280;76694;53.530;50.016;2024-03-22T13:30:23;101409.59;;;4.70;55.91
86085;BME280;76694;53.530;50.016;2024-03-22T13:35:26;101435.88;;;4.64;51.39
86085;BME280;76694;53.530;50.016;2024-03-22T13:40:29;101421.25;;;4.36;54.82
86085;BME280;76694;53.530;50.016;2024-03-22T13:45:31;101425.91;;;4.07;50.70
86085;BME280;76694;53.530;50.016;2024-03-22T13:50:34;101387.78;;;3.73;51.74
86085;BME280;76694;53.530;50.016;2024-03-22T13:55:37;101399.84;;;3.57;56.61
86085;BME280;76694;53.530;50.016;2024-03-22T14:00:40;101395.00;;;3.17;57.36
86085;BME280;76694;53.530;50.016;2024-03-22T14:05:46;101376.88;;;2.72;57.22
86085;BME280;76694;53.530;50.016;2024-03-22T14:10:49;101389.97;;;2.42;60.57
86085;BME280;76694;53.530;50.016;2024-03-22T14:15:52;101369.72;;;2.05;63.79
86085;BME280;76694;53.530;50.016;2024-03-22T14:20:58;101399.88;;;1.73;65.44
86085;BME280;76694;53.530;50.016;2024-03-22T14:26:01;101398.25;;;1.42;68.55
86085;BME280;76694;53.530;50.016;2024-03-22T14:31:04;101407.41;;;1.26;70.14
86085;BME280;76694;53.530;50.016;2024-03-22T14:36:07;101398.28;;;0.96;71.49
86085;BME280;76694;53.530;50.016;2024-03-22T14:41:11;101347.38;;;0.35;67.79
86085;BME280;76694;53.530;50.016;2024-03-22T14:46:15;101388.06;;;0.33;68.02
86085;BME280;76694;53.530;50.016;2024-03-22T14:51:19;101413.75;;;0.20;69.02
86085;BME280;76694;53.530;50.016;2024-03-22T14:56:22;101373.81;;;-0.29;69.84
86085;BME280;76694;53.530;50.016;2024-03-22T15:01:25;101381.19;;;-0.55;68.68
86085;BME280;76694;53.530;50.016;2024-03-22T15:06:29;101414.19;;;-0.68;68.39
86085;BME280;76694;53.530;50.016;2024-03-22T15:11:32;101406.28;;;-1.09;70.27
86085;BME280;76694;53.530;50.016;2024-03-22T15:16:35;101412.41;;;-1.34;70.51
86085;BME280;76694;53.530;50.016;2024-03-22T15:21:38;101408.47;;;-1.64;71.09
86085;BME280;76694;53.530;50.016;2024-03-22T15:26:41;101382.28;;;-2.01;72.01
86085;BME280;76694;53.530;50.016;2024-03-22T15:31:44;101412.41;;;-2.14;72.52
86085;BME280;76694;53.530;50.016;2024-03-22T15:36:47;101433.19;;;-2.27;74.04
86085;BME280;76694;53.530;50.016;2024-03-22T15:41:51;101412.44;;;-2.55;74.08
86085;BME280;76694;53.530;50.016;2024-03-22T15:46:54;101411.16;;;-2.58;73.93
86085;BME280;76694;53.530;50.016;2024-03-22T15:52:02;101439.28;;;-2.71;75.11
86085;BME280;76694;53.530;50.016;2024-03-22T15:57:05;101421.84;;;-3.02;76.62
86085;BME280;76694;53.530;50.016;2024-03-22T16:02:08;101444.81;;;-2.89;76.94
86085;BME280;76694;53.530;50.016;2024-03-22T16:07:11;101413.72;;;-3.20;76.66
86085;BME280;76694;53.530;50.016;2024-03-22T16:12:14;101422.94;;;-3.16;77.00
86085;BME280;76694;53.530;50.016;2024-03-22T16:17:17;101360.19;;;-3.62;77.42
86085;BME280;76694;53.530;50.016;2024-03-22T16:22:20;101441.53;;;-3.18;78.36
86085;BME280;76694;53.530;50.016;2024-03-22T16:27:23;101438.69;;;-3.13;78.00
86085;BME280;76694;53.530;50.016;2024-03-22T16:32:25;101426.63;;;-3.26;77.80
86085;BME280;76694;53.530;50.016;2024-03-22T16:37:28;101416.59;;;-3.44;77.19
86085;BME280;76694;53.530;50.016;2024-03-22T16:42:31;101394.41;;;-3.70;78.33
86085;BME280;76694;53.530;50.016;2024-03-22T16:47:34;101386.59;;;-3.76;78.55
86085;BME280;76694;53.530;50.016;2024-03-22T16:52:38;101416.84;;;-3.59;78.56
86085;BME280;76694;53.530;50.016;2024-03-22T16:57:41;101420.53;;;-3.69;78.63
86085;BME280;76694;53.530;50.016;2024-03-22T17:02:44;101425.03;;;-3.78;78.63
86085;BME280;76694;53.530;50.016;2024-03-22T17:07:47;101380.56;;;-4.11;78.48
86085;BME280;76694;53.530;50.016;2024-03-22T17:12:50;101423.97;;;-3.95;78.46
86085;BME280;76694;53.530;50.016;2024-03-22T17:17:54;101397.59;;;-4.19;78.73
86085;BME280;76694;53.530;50.016;2024-03-22T17:22:58;101413.22;;;-4.24;78.77
86085;BME280;76694;53.530;50.016;2024-03-22T17:28:01;101416.81;;;-4.29;79.63
86085;BME280;76694;53.530;50.016;2024-03-22T17:33:03;101384.00;;;-4.61;79.74
86085;BME280;76694;53.530;50.016;2024-03-22T17:38:06;101401.75;;;-4.63;80.01
86085;BME280;76694;53.530;50.016;2024-03-22T17:43:12;101411.41;;;-4.76;80.54
86085;BME280;76694;53.530;50.016;2024-03-22T17:48:16;101405.47;;;-4.78;81.10
86085;BME280;76694;53.530;50.016;2024-03-22T17:53:19;101387.66;;;-4.94;80.87
86085;BME280;76694;53.530;50.016;2024-03-22T17:58:22;101400.31;;;-5.03;80.87
86085;BME280;76694;53.530;50.016;2024-03-22T18:03:24;101358.53;;;-5.41;81.52
86085;BME280;76694;53.530;50.016;2024-03-22T18:08:27;101389.19;;;-5.35;81.87
86085;BME280;76694;53.530;50.016;2024-03-22T18:13:29;101401.63;;;-5.29;82.01
86085;BME280;76694;53.530;50.016;2024-03-22T18:18:34;101376.84;;;-5.51;82.13
86085;BME280;76694;53.530;50.016;2024-03-22T18:23:37;101404.22;;;-5.43;81.33
86085;BME280;76694;53.530;50.016;2024-03-22T18:28:39;101377.06;;;-5.77;81.57
86085;BME280;76694;53.530;50.016;2024-03-22T18:33:42;101397.19;;;-5.78;82.86
86085;BME280;76694;53.530;50.016;2024-03-22T18:38:45;101403.72;;;-5.79;82.93
86085;BME280;76694;53.530;50.016;2024-03-22T18:43:47;101380.63;;;-6.10;82.25
86085;BME280;76694;53.530;50.016;2024-03-22T18:48:50;101421.56;;;-6.01;83.20
86085;BME280;76694;53.530;50.016;2024-03-22T18:53:53;101393.97;;;-6.18;83.14
86085;BME280;76694;53.530;50.016;2024-03-22T18:58:57;101407.25;;;-6.12;82.13
86085;BME280;76694;53.530;50.016;2024-03-22T19:04:00;101358.66;;;-6.62;83.04
86085;BME280;76694;53.530;50.016;2024-03-22T19:09:03;101385.72;;;-6.42;82.74
86085;BME280;76694;53.530;50.016;2024-03-22T19:14:06;101396.84;;;-6.43;81.50
86085;BME280;76694;53.530;50.016;2024-03-22T19:19:08;101404.72;;;-6.47;82.04
86085;BME280;76694;53.530;50.016;2024-03-22T19:24:11;101391.56;;;-6.74;82.97
86085;BME280;76694;53.530;50.016;2024-03-22T19:29:15;101401.31;;;-6.68;82.32
86085;BME280;76694;53.530;50.016;2024-03-22T19:34:17;101392.38;;;-6.73;81.78
86085;BME280;76694;53.530;50.016;2024-03-22T19:39:20;101385.94;;;-6.92;81.70
86085;BME280;76694;53.530;50.016;2024-03-22T19:44:23;101383.28;;;-7.07;82.43
86085;BME280;76694;53.530;50.016;2024-03-22T19:49:26;101380.84;;;-7.09;82.83
86085;BME280;76694;53.530;50.016;2024-03-22T19:54:30;101385.16;;;-7.08;81.56
86085;BME280;76694;53.530;50.016;2024-03-22T19:59:32;101375.44;;;-7.19;82.23
86085;BME280;76694;53.530;50.016;2024-03-22T20:04:35;101374.13;;;-7.37;83.19
86085;BME280;76694;53.530;50.016;2024-03-22T20:09:38;101376.56;;;-7.35;82.11
86085;BME280;76694;53.530;50.016;2024-03-22T20:14:41;101373.31;;;-7.47;81.75
86085;BME280;76694;53.530;50.016;2024-03-22T20:19:45;101366.56;;;-7.55;82.23
86085;BME280;76694;53.530;50.016;2024-03-22T20:24:47;101336.25;;;-7.77;82.14
86085;BME280;76694;53.530;50.016;2024-03-22T20:29:50;101363.06;;;-7.70;82.14
86085;BME280;76694;53.530;50.016;2024-03-22T20:34:53;101342.78;;;-7.88;82.08
